首页
METAR-TAF:

METAR-TAF

机场 :

尚贝里 / 艾克斯-就业辅导组班, 法国

纬度: 45-39N, 经度: 005-53E, 海拔: 235米

当前天气观测

该预报发布于42分钟前的09:00 UTC
风速2节,风向多变
温度 14°C
湿度 94%
气压 1010 hPa
能见度10公里或以上

METAR: LFLB 150900Z AUTO VRB02KT 9999 RA SCT027/// BKN037/// BKN045/// ///CB 14/13 Q1010 TEMPO VRB12KT 3000 RA BKN009

时间: 11:42 (09:42 UTC)

预报

该预报发布于1小时和19分钟前的08:23 UTC
预报有效从15日的 08点(UTC)到 16日的 06点(UTC)
风速2节,风向多变
能见度10公里或以上
多云层高于4500英尺
短暂存在
从 15日的 08点(UTC)到 15日的 18点(UTC)
风速12节,风向多变
能見度: 3000
多云层高于900英尺
几率 40% :
短暂存在
从 15日的 08点(UTC)到 15日的 17点(UTC)
散云层高于2000英尺, 积雨云.
几率 40% :
短暂存在
从 16日的 03点(UTC)到 16日的 06点(UTC)
能見度: 3000
浅雾

TAF: LFLB 150823Z 1508/1606 VRB02KT 9999 BKN045 TEMPO 1508/1518 VRB12KT 3000 RA BKN009 PROB40 TEMPO 1508/1517 SCT020CB PROB40 TEMPO 1603/1606 3000 MIFG

超过4000个机场的气象观测和天气预报(METAR&TAF报告)。

可查询的气象台以黄色和红色小点在地图上表示。

将鼠标移到小点上方,可查看气象台名称。

然后点击查看天气观测和预报。

如需切换地图:点击带黑十字的绿色按钮放大地图;点击带横线的绿色按钮缩小地图;或者点击绿色箭头查看邻近地区的地图。


METAR-TAF: